sensor_id;sensor_type;location;lat;lon;timestamp;temperature;humidity
30300;DHT22;17110;52.602;12.998;2023-11-21T00:01:48;7.30;99.90
30300;DHT22;17110;52.602;12.998;2023-11-21T00:06:48;7.20;99.90
30300;DHT22;17110;52.602;12.998;2023-11-21T00:11:51;7.10;99.90
30300;DHT22;17110;52.602;12.998;2023-11-21T00:16:52;7.10;99.90
30300;DHT22;17110;52.602;12.998;2023-11-21T00:21:53;7.10;99.90
30300;DHT22;17110;52.602;12.998;2023-11-21T00:26:55;7.10;99.90
30300;DHT22;17110;52.602;12.998;2023-11-21T00:31:56;7.10;99.90
30300;DHT22;17110;52.602;12.998;2023-11-21T00:36:57;7.00;99.90
30300;DHT22;17110;52.602;12.998;2023-11-21T00:41:59;6.90;99.90
30300;DHT22;17110;52.602;12.998;2023-11-21T00:47:00;6.90;99.90
30300;DHT22;17110;52.602;12.998;2023-11-21T00:52:00;7.00;99.90
30300;DHT22;17110;52.602;12.998;2023-11-21T00:57:03;6.90;99.90
30300;DHT22;17110;52.602;12.998;2023-11-21T01:02:04;6.80;99.90
30300;DHT22;17110;52.602;12.998;2023-11-21T01:07:06;6.70;99.90
30300;DHT22;17110;52.602;12.998;2023-11-21T01:12:08;6.70;99.90
30300;DHT22;17110;52.602;12.998;2023-11-21T01:17:09;6.70;99.90
30300;DHT22;17110;52.602;12.998;2023-11-21T01:22:09;6.60;99.90
30300;DHT22;17110;52.602;12.998;2023-11-21T01:27:11;6.50;99.90
30300;DHT22;17110;52.602;12.998;2023-11-21T01:32:12;6.50;99.90
30300;DHT22;17110;52.602;12.998;2023-11-21T01:37:13;6.50;99.90
30300;DHT22;17110;52.602;12.998;2023-11-21T01:42:15;6.50;99.90
30300;DHT22;17110;52.602;12.998;2023-11-21T01:47:16;6.40;99.90
30300;DHT22;17110;52.602;12.998;2023-11-21T01:52:18;6.40;99.90
30300;DHT22;17110;52.602;12.998;2023-11-21T01:57:20;6.30;99.90
30300;DHT22;17110;52.602;12.998;2023-11-21T02:02:21;6.30;99.90
30300;DHT22;17110;52.602;12.998;2023-11-21T02:07:22;6.40;99.90
30300;DHT22;17110;52.602;12.998;2023-11-21T02:12:24;6.40;99.90
30300;DHT22;17110;52.602;12.998;2023-11-21T02:17:25;6.40;99.90
30300;DHT22;17110;52.602;12.998;2023-11-21T02:22:27;6.30;99.90
30300;DHT22;17110;52.602;12.998;2023-11-21T02:27:31;6.20;99.90
30300;DHT22;17110;52.602;12.998;2023-11-21T02:32:32;6.10;99.90
30300;DHT22;17110;52.602;12.998;2023-11-21T02:37:33;6.10;99.90
30300;DHT22;17110;52.602;12.998;2023-11-21T02:42:35;6.10;99.90
30300;DHT22;17110;52.602;12.998;2023-11-21T02:47:35;6.00;99.90
30300;DHT22;17110;52.602;12.998;2023-11-21T02:52:36;6.10;99.90
30300;DHT22;17110;52.602;12.998;2023-11-21T02:57:38;6.00;99.90
30300;DHT22;17110;52.602;12.998;2023-11-21T03:02:39;6.00;99.90
30300;DHT22;17110;52.602;12.998;2023-11-21T03:07:40;6.00;99.90
30300;DHT22;17110;52.602;12.998;2023-11-21T03:12:42;5.90;99.90
30300;DHT22;17110;52.602;12.998;2023-11-21T03:17:44;5.90;99.90
30300;DHT22;17110;52.602;12.998;2023-11-21T03:22:45;6.00;99.90
30300;DHT22;17110;52.602;12.998;2023-11-21T03:27:47;6.00;99.90
30300;DHT22;17110;52.602;12.998;2023-11-21T03:32:47;5.90;99.90
30300;DHT22;17110;52.602;12.998;2023-11-21T03:37:49;6.00;99.90
30300;DHT22;17110;52.602;12.998;2023-11-21T03:42:51;6.00;99.90
30300;DHT22;17110;52.602;12.998;2023-11-21T03:47:55;6.00;99.90
30300;DHT22;17110;52.602;12.998;2023-11-21T03:52:55;6.00;99.90
30300;DHT22;17110;52.602;12.998;2023-11-21T03:57:58;6.10;99.90
30300;DHT22;17110;52.602;12.998;2023-11-21T04:02:59;6.00;99.90
30300;DHT22;17110;52.602;12.998;2023-11-21T04:07:59;6.00;99.90
30300;DHT22;17110;52.602;12.998;2023-11-21T04:13:01;5.90;99.90
30300;DHT22;17110;52.602;12.998;2023-11-21T04:18:02;6.00;99.90
30300;DHT22;17110;52.602;12.998;2023-11-21T04:23:03;6.00;99.90
30300;DHT22;17110;52.602;12.998;2023-11-21T04:28:05;6.00;99.90
30300;DHT22;17110;52.602;12.998;2023-11-21T04:33:06;6.00;99.90
30300;DHT22;17110;52.602;12.998;2023-11-21T04:38:07;6.00;99.90
30300;DHT22;17110;52.602;12.998;2023-11-21T04:43:09;6.00;99.90
30300;DHT22;17110;52.602;12.998;2023-11-21T04:48:09;6.00;99.90
30300;DHT22;17110;52.602;12.998;2023-11-21T04:53:10;5.80;99.90
30300;DHT22;17110;52.602;12.998;2023-11-21T04:58:13;5.80;99.90
30300;DHT22;17110;52.602;12.998;2023-11-21T05:03:13;5.80;99.90
30300;DHT22;17110;52.602;12.998;2023-11-21T05:08:14;5.80;99.90
30300;DHT22;17110;52.602;12.998;2023-11-21T05:13:16;5.80;99.90
30300;DHT22;17110;52.602;12.998;2023-11-21T05:18:17;5.90;99.90
30300;DHT22;17110;52.602;12.998;2023-11-21T05:23:18;5.80;99.90
30300;DHT22;17110;52.602;12.998;2023-11-21T05:28:20;5.70;99.90
30300;DHT22;17110;52.602;12.998;2023-11-21T05:33:20;5.70;99.90
30300;DHT22;17110;52.602;12.998;2023-11-21T05:38:21;5.70;99.90
30300;DHT22;17110;52.602;12.998;2023-11-21T05:43:23;5.60;99.90
30300;DHT22;17110;52.602;12.998;2023-11-21T05:48:24;5.50;99.90
30300;DHT22;17110;52.602;12.998;2023-11-21T05:53:25;5.50;99.90
30300;DHT22;17110;52.602;12.998;2023-11-21T05:58:27;5.50;99.90
30300;DHT22;17110;52.602;12.998;2023-11-21T06:03:27;5.50;99.90
30300;DHT22;17110;52.602;12.998;2023-11-21T06:08:28;5.50;99.90
30300;DHT22;17110;52.602;12.998;2023-11-21T06:13:30;5.40;99.90
30300;DHT22;17110;52.602;12.998;2023-11-21T06:18:31;5.30;99.90
30300;DHT22;17110;52.602;12.998;2023-11-21T06:23:31;5.40;99.90
30300;DHT22;17110;52.602;12.998;2023-11-21T06:28:34;5.40;99.90
30300;DHT22;17110;52.602;12.998;2023-11-21T06:33:34;5.40;99.90
30300;DHT22;17110;52.602;12.998;2023-11-21T06:38:35;5.20;99.90
30300;DHT22;17110;52.602;12.998;2023-11-21T06:43:37;5.40;99.90
30300;DHT22;17110;52.602;12.998;2023-11-21T06:48:38;5.40;99.90
30300;DHT22;17110;52.602;12.998;2023-11-21T06:53:38;5.40;99.90
30300;DHT22;17110;52.602;12.998;2023-11-21T06:58:40;5.30;99.90
30300;DHT22;17110;52.602;12.998;2023-11-21T07:03:41;5.30;99.90
30300;DHT22;17110;52.602;12.998;2023-11-21T07:08:42;5.30;99.90
30300;DHT22;17110;52.602;12.998;2023-11-21T07:13:44;5.30;99.90
30300;DHT22;17110;52.602;12.998;2023-11-21T07:18:45;5.20;99.90
30300;DHT22;17110;52.602;12.998;2023-11-21T07:23:46;5.20;99.90
30300;DHT22;17110;52.602;12.998;2023-11-21T07:28:48;5.30;99.90
30300;DHT22;17110;52.602;12.998;2023-11-21T07:33:48;5.20;99.90
30300;DHT22;17110;52.602;12.998;2023-11-21T07:38:50;5.10;99.90
30300;DHT22;17110;52.602;12.998;2023-11-21T07:43:52;5.00;99.90
30300;DHT22;17110;52.602;12.998;2023-11-21T07:48:52;5.00;99.90
30300;DHT22;17110;52.602;12.998;2023-11-21T07:53:53;5.00;99.90
30300;DHT22;17110;52.602;12.998;2023-11-21T07:58:55;5.10;99.90
30300;DHT22;17110;52.602;12.998;2023-11-21T08:03:56;5.10;99.90
30300;DHT22;17110;52.602;12.998;2023-11-21T08:08:57;5.10;99.90
30300;DHT22;17110;52.602;12.998;2023-11-21T08:13:59;5.20;99.90
30300;DHT22;17110;52.602;12.998;2023-11-21T08:18:59;5.40;99.90
30300;DHT22;17110;52.602;12.998;2023-11-21T08:24:00;5.30;99.90
30300;DHT22;17110;52.602;12.998;2023-11-21T08:29:02;5.30;99.90
30300;DHT22;17110;52.602;12.998;2023-11-21T08:34:03;5.30;99.90
30300;DHT22;17110;52.602;12.998;2023-11-21T08:39:04;5.30;99.90
30300;DHT22;17110;52.602;12.998;2023-11-21T08:44:06;5.20;99.90
30300;DHT22;17110;52.602;12.998;2023-11-21T08:49:07;5.20;99.90
30300;DHT22;17110;52.602;12.998;2023-11-21T08:54:07;5.30;99.90
30300;DHT22;17110;52.602;12.998;2023-11-21T08:59:10;5.30;99.90
30300;DHT22;17110;52.602;12.998;2023-11-21T09:04:10;5.20;99.90
30300;DHT22;17110;52.602;12.998;2023-11-21T09:09:11;5.10;99.90
30300;DHT22;17110;52.602;12.998;2023-11-21T09:14:13;5.20;99.90
30300;DHT22;17110;52.602;12.998;2023-11-21T09:19:14;5.30;99.90
30300;DHT22;17110;52.602;12.998;2023-11-21T09:24:15;5.10;99.90
30300;DHT22;17110;52.602;12.998;2023-11-21T09:29:17;4.90;99.90
30300;DHT22;17110;52.602;12.998;2023-11-21T09:34:17;5.00;99.90
30300;DHT22;17110;52.602;12.998;2023-11-21T09:39:18;5.00;99.90
30300;DHT22;17110;52.602;12.998;2023-11-21T09:44:29;5.10;99.90
30300;DHT22;17110;52.602;12.998;2023-11-21T09:49:33;5.00;99.90
30300;DHT22;17110;52.602;12.998;2023-11-21T09:54:35;4.90;99.90
30300;DHT22;17110;52.602;12.998;2023-11-21T09:59:38;4.90;99.90
30300;DHT22;17110;52.602;12.998;2023-11-21T10:04:39;4.90;99.90
30300;DHT22;17110;52.602;12.998;2023-11-21T10:09:40;5.10;99.90
30300;DHT22;17110;52.602;12.998;2023-11-21T10:14:43;5.00;99.90
30300;DHT22;17110;52.602;12.998;2023-11-21T10:19:44;4.90;99.90
30300;DHT22;17110;52.602;12.998;2023-11-21T10:24:46;5.00;99.90
30300;DHT22;17110;52.602;12.998;2023-11-21T10:29:51;5.20;99.90
30300;DHT22;17110;52.602;12.998;2023-11-21T10:34:58;5.20;99.90
30300;DHT22;17110;52.602;12.998;2023-11-21T10:39:59;5.10;99.90
30300;DHT22;17110;52.602;12.998;2023-11-21T10:45:03;5.10;99.90
30300;DHT22;17110;52.602;12.998;2023-11-21T10:50:05;4.90;99.90
30300;DHT22;17110;52.602;12.998;2023-11-21T10:55:16;5.00;99.90
30300;DHT22;17110;52.602;12.998;2023-11-21T11:00:18;4.90;99.90
30300;DHT22;17110;52.602;12.998;2023-11-21T11:05:21;4.70;99.90
30300;DHT22;17110;52.602;12.998;2023-11-21T11:10:21;4.60;99.90
30300;DHT22;17110;52.602;12.998;2023-11-21T11:15:24;4.50;99.90
30300;DHT22;17110;52.602;12.998;2023-11-21T11:20:34;4.60;99.90
30300;DHT22;17110;52.602;12.998;2023-11-21T11:25:53;4.60;99.90
30300;DHT22;17110;52.602;12.998;2023-11-21T11:31:05;4.50;99.90
30300;DHT22;17110;52.602;12.998;2023-11-21T11:36:15;4.60;99.90
30300;DHT22;17110;52.602;12.998;2023-11-21T11:41:25;4.60;99.90
30300;DHT22;17110;52.602;12.998;2023-11-21T11:46:42;4.60;99.90
30300;DHT22;17110;52.602;12.998;2023-11-21T11:51:43;4.70;99.90
30300;DHT22;17110;52.602;12.998;2023-11-21T11:56:44;4.80;99.90
30300;DHT22;17110;52.602;12.998;2023-11-21T12:01:48;4.80;99.90
30300;DHT22;17110;52.602;12.998;2023-11-21T12:06:51;4.90;99.90
30300;DHT22;17110;52.602;12.998;2023-11-21T12:11:53;4.80;99.90
30300;DHT22;17110;52.602;12.998;2023-11-21T12:16:56;4.70;99.90
30300;DHT22;17110;52.602;12.998;2023-11-21T12:21:56;4.70;99.90
30300;DHT22;17110;52.602;12.998;2023-11-21T12:26:58;4.60;99.90
30300;DHT22;17110;52.602;12.998;2023-11-21T12:32:00;4.50;99.90
30300;DHT22;17110;52.602;12.998;2023-11-21T12:37:01;4.40;99.90
30300;DHT22;17110;52.602;12.998;2023-11-21T12:42:02;4.40;99.90
30300;DHT22;17110;52.602;12.998;2023-11-21T12:47:04;4.30;99.90
30300;DHT22;17110;52.602;12.998;2023-11-21T12:52:06;4.50;99.90
30300;DHT22;17110;52.602;12.998;2023-11-21T12:57:06;4.30;99.90
30300;DHT22;17110;52.602;12.998;2023-11-21T13:02:08;4.20;99.90
30300;DHT22;17110;52.602;12.998;2023-11-21T13:07:09;4.20;99.90
30300;DHT22;17110;52.602;12.998;2023-11-21T13:12:10;4.20;99.90
30300;DHT22;17110;52.602;12.998;2023-11-21T13:17:12;4.20;99.90
30300;DHT22;17110;52.602;12.998;2023-11-21T13:22:13;4.20;99.90
30300;DHT22;17110;52.602;12.998;2023-11-21T13:27:13;4.30;99.90
30300;DHT22;17110;52.602;12.998;2023-11-21T13:32:15;4.30;99.90
30300;DHT22;17110;52.602;12.998;2023-11-21T13:37:16;4.20;99.90
30300;DHT22;17110;52.602;12.998;2023-11-21T13:42:17;4.20;99.90
30300;DHT22;17110;52.602;12.998;2023-11-21T13:47:19;4.10;99.90
30300;DHT22;17110;52.602;12.998;2023-11-21T13:52:20;4.00;99.90
30300;DHT22;17110;52.602;12.998;2023-11-21T13:57:20;4.00;99.90
30300;DHT22;17110;52.602;12.998;2023-11-21T14:02:22;3.80;99.90
30300;DHT22;17110;52.602;12.998;2023-11-21T14:07:23;3.90;99.90
30300;DHT22;17110;52.602;12.998;2023-11-21T14:12:24;3.80;99.90
30300;DHT22;17110;52.602;12.998;2023-11-21T14:17:26;3.70;99.90
30300;DHT22;17110;52.602;12.998;2023-11-21T14:22:27;3.70;99.90
30300;DHT22;17110;52.602;12.998;2023-11-21T14:27:28;3.80;99.90
30300;DHT22;17110;52.602;12.998;2023-11-21T14:32:30;3.70;99.90
30300;DHT22;17110;52.602;12.998;2023-11-21T14:37:30;3.60;99.90
30300;DHT22;17110;52.602;12.998;2023-11-21T14:42:31;3.60;99.90
30300;DHT22;17110;52.602;12.998;2023-11-21T14:47:33;3.50;99.90
30300;DHT22;17110;52.602;12.998;2023-11-21T14:52:34;3.50;99.90
30300;DHT22;17110;52.602;12.998;2023-11-21T14:57:35;3.40;99.90
30300;DHT22;17110;52.602;12.998;2023-11-21T15:02:37;3.40;99.90
30300;DHT22;17110;52.602;12.998;2023-11-21T15:07:39;3.40;99.90
30300;DHT22;17110;52.602;12.998;2023-11-21T15:12:40;3.30;99.90
30300;DHT22;17110;52.602;12.998;2023-11-21T15:17:42;3.30;99.90
30300;DHT22;17110;52.602;12.998;2023-11-21T15:22:43;3.40;99.90
30300;DHT22;17110;52.602;12.998;2023-11-21T15:27:43;3.30;99.90
30300;DHT22;17110;52.602;12.998;2023-11-21T15:32:45;3.30;99.90
30300;DHT22;17110;52.602;12.998;2023-11-21T15:37:46;3.20;99.90
30300;DHT22;17110;52.602;12.998;2023-11-21T15:42:47;3.20;99.90
30300;DHT22;17110;52.602;12.998;2023-11-21T15:47:49;3.20;99.90
30300;DHT22;17110;52.602;12.998;2023-11-21T15:52:50;3.10;99.90
30300;DHT22;17110;52.602;12.998;2023-11-21T15:57:50;3.10;99.90
30300;DHT22;17110;52.602;12.998;2023-11-21T16:02:52;3.10;99.90
30300;DHT22;17110;52.602;12.998;2023-11-21T16:07:53;3.00;99.90
30300;DHT22;17110;52.602;12.998;2023-11-21T16:12:54;3.10;99.90
30300;DHT22;17110;52.602;12.998;2023-11-21T16:17:56;3.00;99.90
30300;DHT22;17110;52.602;12.998;2023-11-21T16:22:57;3.00;99.90
30300;DHT22;17110;52.602;12.998;2023-11-21T16:27:57;2.90;99.90
30300;DHT22;17110;52.602;12.998;2023-11-21T16:32:59;2.90;99.90
30300;DHT22;17110;52.602;12.998;2023-11-21T16:38:00;2.80;99.90
30300;DHT22;17110;52.602;12.998;2023-11-21T16:43:01;2.70;99.90
30300;DHT22;17110;52.602;12.998;2023-11-21T16:48:03;2.70;99.90
30300;DHT22;17110;52.602;12.998;2023-11-21T16:53:04;2.70;99.90
30300;DHT22;17110;52.602;12.998;2023-11-21T16:58:05;2.70;99.90
30300;DHT22;17110;52.602;12.998;2023-11-21T17:03:07;2.70;99.90
30300;DHT22;17110;52.602;12.998;2023-11-21T17:08:08;2.70;99.90
30300;DHT22;17110;52.602;12.998;2023-11-21T17:13:08;2.70;99.90
30300;DHT22;17110;52.602;12.998;2023-11-21T17:18:10;2.60;99.90
30300;DHT22;17110;52.602;12.998;2023-11-21T17:23:11;2.50;99.90
30300;DHT22;17110;52.602;12.998;2023-11-21T17:28:12;2.50;99.90
30300;DHT22;17110;52.602;12.998;2023-11-21T17:33:14;2.50;99.90
30300;DHT22;17110;52.602;12.998;2023-11-21T17:38:15;2.60;99.90
30300;DHT22;17110;52.602;12.998;2023-11-21T17:43:15;2.60;99.90
30300;DHT22;17110;52.602;12.998;2023-11-21T17:48:18;2.50;99.90
30300;DHT22;17110;52.602;12.998;2023-11-21T17:53:18;2.50;99.90
30300;DHT22;17110;52.602;12.998;2023-11-21T17:58:19;2.40;99.90
30300;DHT22;17110;52.602;12.998;2023-11-21T18:03:21;2.50;99.90
30300;DHT22;17110;52.602;12.998;2023-11-21T18:08:23;2.50;99.90
30300;DHT22;17110;52.602;12.998;2023-11-21T18:13:24;2.50;99.90
30300;DHT22;17110;52.602;12.998;2023-11-21T18:18:26;2.40;99.90
30300;DHT22;17110;52.602;12.998;2023-11-21T18:23:26;2.40;99.90
30300;DHT22;17110;52.602;12.998;2023-11-21T18:28:27;2.40;99.90
30300;DHT22;17110;52.602;12.998;2023-11-21T18:33:29;2.40;99.90
30300;DHT22;17110;52.602;12.998;2023-11-21T18:38:30;2.40;99.90
30300;DHT22;17110;52.602;12.998;2023-11-21T18:43:31;2.30;99.90
30300;DHT22;17110;52.602;12.998;2023-11-21T18:48:34;2.30;99.90
30300;DHT22;17110;52.602;12.998;2023-11-21T18:53:35;2.20;99.90
30300;DHT22;17110;52.602;12.998;2023-11-21T18:58:35;2.20;99.90
30300;DHT22;17110;52.602;12.998;2023-11-21T19:03:37;2.10;99.90
30300;DHT22;17110;52.602;12.998;2023-11-21T19:08:40;2.10;99.90
30300;DHT22;17110;52.602;12.998;2023-11-21T19:13:41;2.20;99.90
30300;DHT22;17110;52.602;12.998;2023-11-21T19:18:44;2.10;99.90
30300;DHT22;17110;52.602;12.998;2023-11-21T19:23:45;2.10;99.90
30300;DHT22;17110;52.602;12.998;2023-11-21T19:28:45;2.00;99.90
30300;DHT22;17110;52.602;12.998;2023-11-21T19:33:48;2.10;99.90
30300;DHT22;17110;52.602;12.998;2023-11-21T19:38:48;2.10;99.90
30300;DHT22;17110;52.602;12.998;2023-11-21T19:43:50;2.10;99.90
30300;DHT22;17110;52.602;12.998;2023-11-21T19:48:52;2.10;99.90
30300;DHT22;17110;52.602;12.998;2023-11-21T19:53:53;2.10;99.90
30300;DHT22;17110;52.602;12.998;2023-11-21T19:58:53;2.10;99.90
30300;DHT22;17110;52.602;12.998;2023-11-21T20:03:55;2.10;99.90
30300;DHT22;17110;52.602;12.998;2023-11-21T20:08:56;2.10;99.90
30300;DHT22;17110;52.602;12.998;2023-11-21T20:13:57;2.10;99.90
30300;DHT22;17110;52.602;12.998;2023-11-21T20:18:59;2.20;99.90
30300;DHT22;17110;52.602;12.998;2023-11-21T20:24:00;2.20;99.90
30300;DHT22;17110;52.602;12.998;2023-11-21T20:29:01;2.20;99.90
30300;DHT22;17110;52.602;12.998;2023-11-21T20:34:03;2.30;99.90
30300;DHT22;17110;52.602;12.998;2023-11-21T20:39:04;2.30;99.90
30300;DHT22;17110;52.602;12.998;2023-11-21T20:44:05;2.30;99.90
30300;DHT22;17110;52.602;12.998;2023-11-21T20:49:09;2.30;99.90
30300;DHT22;17110;52.602;12.998;2023-11-21T20:54:09;2.20;99.90
30300;DHT22;17110;52.602;12.998;2023-11-21T20:59:10;2.10;99.90
30300;DHT22;17110;52.602;12.998;2023-11-21T21:04:12;2.00;99.90
30300;DHT22;17110;52.602;12.998;2023-11-21T21:09:13;2.00;99.90
30300;DHT22;17110;52.602;12.998;2023-11-21T21:14:14;1.80;99.90
30300;DHT22;17110;52.602;12.998;2023-11-21T21:19:16;1.70;99.90
30300;DHT22;17110;52.602;12.998;2023-11-21T21:24:16;1.60;99.90
30300;DHT22;17110;52.602;12.998;2023-11-21T21:29:17;1.50;99.90
30300;DHT22;17110;52.602;12.998;2023-11-21T21:34:19;1.40;99.90
30300;DHT22;17110;52.602;12.998;2023-11-21T21:39:20;1.20;99.90
30300;DHT22;17110;52.602;12.998;2023-11-21T21:44:21;1.10;99.90
30300;DHT22;17110;52.602;12.998;2023-11-21T21:49:23;1.00;99.90
30300;DHT22;17110;52.602;12.998;2023-11-21T21:54:23;0.80;99.90
30300;DHT22;17110;52.602;12.998;2023-11-21T21:59:24;0.70;99.90
30300;DHT22;17110;52.602;12.998;2023-11-21T22:04:26;0.70;99.90
30300;DHT22;17110;52.602;12.998;2023-11-21T22:09:27;0.70;99.90
30300;DHT22;17110;52.602;12.998;2023-11-21T22:14:28;0.70;99.90
30300;DHT22;17110;52.602;12.998;2023-11-21T22:19:30;0.60;99.90
30300;DHT22;17110;52.602;12.998;2023-11-21T22:24:31;0.50;99.90
30300;DHT22;17110;52.602;12.998;2023-11-21T22:29:31;0.40;99.90
30300;DHT22;17110;52.602;12.998;2023-11-21T22:34:33;0.30;99.90
30300;DHT22;17110;52.602;12.998;2023-11-21T22:39:34;0.30;99.90
30300;DHT22;17110;52.602;12.998;2023-11-21T22:44:35;0.30;99.90
30300;DHT22;17110;52.602;12.998;2023-11-21T22:49:38;0.20;99.90
30300;DHT22;17110;52.602;12.998;2023-11-21T22:54:40;0.10;99.90
30300;DHT22;17110;52.602;12.998;2023-11-21T22:59:41;0.10;99.90
30300;DHT22;17110;52.602;12.998;2023-11-21T23:04:43;0.10;99.90
30300;DHT22;17110;52.602;12.998;2023-11-21T23:09:44;0.10;99.90
30300;DHT22;17110;52.602;12.998;2023-11-21T23:14:45;0.00;99.90
30300;DHT22;17110;52.602;12.998;2023-11-21T23:19:47;-0.10;99.90
30300;DHT22;17110;52.602;12.998;2023-11-21T23:24:48;-0.20;99.90
30300;DHT22;17110;52.602;12.998;2023-11-21T23:29:48;-0.20;99.90
30300;DHT22;17110;52.602;12.998;2023-11-21T23:34:50;-0.30;99.90
30300;DHT22;17110;52.602;12.998;2023-11-21T23:39:51;-0.20;99.90
30300;DHT22;17110;52.602;12.998;2023-11-21T23:44:52;-0.30;99.90
30300;DHT22;17110;52.602;12.998;2023-11-21T23:49:54;-0.30;99.90
30300;DHT22;17110;52.602;12.998;2023-11-21T23:54:55;-0.20;99.90
30300;DHT22;17110;52.602;12.998;2023-11-21T23:59:55;-0.10;99.90
